Terminal Aerodrome Forecast
Issued by NWS El Paso, TX

Home | Current Version | Previous Version | Text Only | Print | Product List | Glossary On
Versions: 1 2 3 4 5 6 7 8 9 10 11 12 13
082
FTUS44 KEPZ 072333
TAFELP
TAF
KELP 072333Z 0800/0824 22008KT P6SM FEW100 BKN120 OVC200
     FM080200 VRB05KT P6SM FEW090 BKN120 OVC180
     FM080800 05010KT P6SM VCSH SCT050 BKN120 OVC180
     FM081100 05013KT P6SM VCSH SCT025 BKN070 OVC180
     FM081400 08014KT P6SM VCSH BKN028 OVC070=

USA.gov is the U.S. government's official web portal to all federal, state and local government web resources and services.